Terminal Aerodrome Forecast
Issued by NWS

Home | Current Version | Previous Version | Text Only | Print | Product List | Glossary On
Versions: 1 2 3 4 5 6 7 8 9 10 11 12 13 14 15 16 17 18 19
000
FTUS41 KAKQ 161700
TAFPHF
TAF
KPHF 161729Z 1618/1718 02011G18KT P6SM SKC
     FM162200 04012KT P6SM SKC
     FM170100 06007KT P6SM SKC
     FM171400 06011G18KT P6SM SCT040=

USA.gov is the U.S. government's official web portal to all federal, state and local government web resources and services.